Fredville, KY

9:59 AM EDT on July 04, 2015 (GMT -0400)
MiddleCreek | | Change Station
CLOSE
Current Station
Personal Weather Station
Location: Prestonsburg, KY
Elevation: 699 ft
Nearby Weather Stations

Elev 699 ft 37.65 °N, 82.88 °W | Updated 12 minutes ago

Overcast
Overcast
71.4 °F
Feels Like 71.4 °F
N
0.0
Wind Variable Wind from West

Today
High -- | Low -- °F
--% Chance of Precip.
Yesterday
High -- | Low -- °F
Precip. -- in
6:15 AM 8:56 PM
Waning Gibbous, 92% visible
Pressure 29.98 in
Visibility 6.0 miles
Clouds Overcast 400 ft
Dew Point 69 °F
Humidity 92%
Rainfall 0.00 in
Snow Depth Not available.
UV 2 out of 12
Pollen .50 out of 12
Air Quality Not available.
Flu Activity Not available.
METAR KJKL 041353Z AUTO 00000KT 6SM BR OVC004 21/19 A3001 RMK AO2 CIG 003V008 SLP152 T02060189

More Conditions Fewer Conditions

Pressure 29.98 in
Visibility 6.0 miles
Clouds Overcast 400 ft
Dew Point 69 °F
Humidity 92%
Rainfall 0.00 in
Snow Depth Not available.
UV 2 out of 12
Pollen .50 out of 12
Air Quality Not available.
Flu Activity Not available.
METAR KJKL 041353Z AUTO 00000KT 6SM BR OVC004 21/19 A3001 RMK AO2 CIG 003V008 SLP152 T02060189

More Conditions Fewer Conditions

10-Day Weather Forecast

×

Almanac

Astronomy

Jul. 04, 2015 Rise Set
Actual Time
Civil Twilight
Nautical Twilight
Astronomical Twilight
Moon
Length of Visible Light
Length of Day
Tomorrow will be .
, % of the Moon is Illuminated

Today's Extremes

State Highs State Lows

Community

WunderPhotos

Upload Photos

1,834,965 photos uploaded!

WunderBlogs® & News

Nearby

Air Quality

  Air Quality AQ Index Pollutant
Not available.

Snow Depth

Station Depth Elevation

Earthquake Activity

City Distance Mag. Time & Date
Minimum magnitude displayed is 2.5.

Coastal Water Temperatures

Place Temperature

Stations

Nearby Weather Stations

Station Location Temp. Windchill Dew Point Humidity Wind Precip. Elev Updated Type